Time;durP1;ratioP1;P1;durP2;ratioP2;P2;SDS_P1;SDS_P2;PMS_P1;PMS_P2;Temp;Humidity;BMP_temperature;BMP_pressure;BME280_temperature;BME280_humidity;BME280_pressure;Samples;Min_cycle;Max_cycle;Signal;HPM_P1;HPM_P2
2021/03/16 00:00:07;;;;;;;23.83;4.13;;;;;;;;;;5072730;28;20086;-65
2021/03/16 00:02:32;;;;;;;15.75;4.35;;;;;;;;;;5072868;28;20031;-65
2021/03/16 00:04:57;;;;;;;26.75;5.88;;;;;;;;;;5073388;28;20103;-65
2021/03/16 00:07:23;;;;;;;17.75;5.28;;;;;;;;;;5072118;28;20457;-65
2021/03/16 00:09:48;;;;;;;27.23;6.60;;;;;;;;;;5072809;28;20036;-65
2021/03/16 00:12:13;;;;;;;28.73;6.35;;;;;;;;;;5054772;28;20028;-66
2021/03/16 00:14:38;;;;;;;21.98;5.05;;;;;;;;;;5065049;22;20407;-84
2021/03/16 00:17:03;;;;;;;25.75;6.50;;;;;;;;;;5051010;28;20025;-84
2021/03/16 00:19:29;;;;;;;28.50;6.60;;;;;;;;;;5051793;28;20037;-84
2021/03/16 00:21:54;;;;;;;36.10;5.53;;;;;;;;;;5051549;28;20389;-85
2021/03/16 00:24:19;;;;;;;39.20;7.55;;;;;;;;;;5051340;28;20024;-85
2021/03/16 00:26:44;;;;;;;38.28;6.18;;;;;;;;;;5049131;28;20033;-85
2021/03/16 00:29:09;;;;;;;33.63;5.63;;;;;;;;;;5048347;28;20021;-85
2021/03/16 00:31:35;;;;;;;33.33;6.07;;;;;;;;;;5050957;28;20029;-85
2021/03/16 00:34:00;;;;;;;37.97;5.07;;;;;;;;;;5051023;28;20025;-83
2021/03/16 00:36:25;;;;;;;33.83;5.13;;;;;;;;;;5049531;28;20049;-84
2021/03/16 00:38:50;;;;;;;64.15;7.45;;;;;;;;;;5077115;22;20041;-67
2021/03/16 00:41:16;;;;;;;47.72;5.72;;;;;;;;;;5062711;28;20099;-66
2021/03/16 00:43:41;;;;;;;34.10;4.97;;;;;;;;;;5067514;28;20036;-67
2021/03/16 00:46:06;;;;;;;42.97;5.63;;;;;;;;;;5052452;28;20053;-67
2021/03/16 00:48:31;;;;;;;38.78;4.53;;;;;;;;;;5051840;28;20506;-67
2021/03/16 00:50:56;;;;;;;43.50;5.25;;;;;;;;;;5051573;28;20071;-67
2021/03/16 00:53:28;;;;;;;39.88;6.60;;;;;;;;;;5093159;22;20037;-87
2021/03/16 00:56:00;;;;;;;40.38;5.18;;;;;;;;;;5090614;28;20051;-88
2021/03/16 00:58:35;;;;;;;31.85;4.75;;;;;;;;;;5072723;28;20522;-88
2021/03/16 01:01:02;;;;;;;35.90;5.40;;;;;;;;;;5071176;28;20058;-87
2021/03/16 01:03:45;;;;;;;41.70;4.85;;;;;;;;;;5071571;28;20541;-87
2021/03/16 01:06:57;;;;;;;42.33;5.53;;;;;;;;;;5070944;28;20036;-87
2021/03/16 01:09:51;;;;;;;33.95;5.25;;;;;;;;;;5040127;28;20040;-87
2021/03/16 01:15:58;;;;;;;38.20;4.55;;;;;;;;;;5061828;28;20115;-89
2021/03/16 01:18:29;;;;;;;45.38;5.88;;;;;;;;;;5044057;28;20108;-88
2021/03/16 01:21:30;;;;;;;27.80;4.95;;;;;;;;;;5071630;28;20028;-88
2021/03/16 01:23:51;;;;;;;34.92;4.40;;;;;;;;;;5071464;28;20028;-88
2021/03/16 01:26:45;;;;;;;32.78;4.60;;;;;;;;;;5076662;28;20025;-87
2021/03/16 01:29:17;;;;;;;29.40;4.50;;;;;;;;;;5090335;28;20023;-87
2021/03/16 01:31:50;;;;;;;38.92;5.85;;;;;;;;;;5081668;28;20020;-87
2021/03/16 01:37:21;;;;;;;26.85;4.45;;;;;;;;;;5057999;28;20037;-87
2021/03/16 01:40:14;;;;;;;33.33;4.80;;;;;;;;;;5081968;28;20504;-87
2021/03/16 01:46:06;;;;;;;;;;;;;;;;;;;;;
2021/03/16 01:49:08;;;;;;;;;;;;;;;;;;;;;
2021/03/16 01:52:00;;;;;;;;;;;;;;;;;;;;;
2021/03/16 01:54:47;;;;;;;26.55;4.18;;;;;;;;;;5090359;28;20022;-87
2021/03/16 01:57:32;;;;;;;38.72;4.50;;;;;;;;;;5081721;28;20096;-87
2021/03/16 01:59:59;;;;;;;31.40;4.88;;;;;;;;;;5088895;28;20016;-87
2021/03/16 02:02:34;;;;;;;45.95;4.72;;;;;;;;;;5089403;28;20012;-88
2021/03/16 02:04:59;;;;;;;43.55;6.05;;;;;;;;;;5077140;28;20056;-90
2021/03/16 02:07:50;;;;;;;26.77;3.70;;;;;;;;;;5090659;28;20501;-87
2021/03/16 02:10:30;;;;;;;28.75;4.45;;;;;;;;;;5078115;28;20025;-89
2021/03/16 02:13:22;;;;;;;32.65;4.10;;;;;;;;;;5080387;28;20021;-88
2021/03/16 02:16:05;;;;;;;34.97;4.65;;;;;;;;;;5092878;28;20099;-87
2021/03/16 02:18:33;;;;;;;27.63;3.17;;;;;;;;;;5099583;28;20034;-90
2021/03/16 02:21:23;;;;;;;28.33;3.78;;;;;;;;;;5095618;28;20743;-88
2021/03/16 02:24:14;;;;;;;30.63;4.40;;;;;;;;;;5051111;28;20040;-88
2021/03/16 02:27:23;;;;;;;44.47;4.57;;;;;;;;;;5087607;28;20016;-88
2021/03/16 02:30:01;;;;;;;34.40;3.83;;;;;;;;;;4992049;28;20101;-87
2021/03/16 02:32:31;;;;;;;27.30;3.85;;;;;;;;;;4973161;28;20263;-87
2021/03/16 02:35:15;;;;;;;35.95;5.70;;;;;;;;;;5031983;28;20230;-87
2021/03/16 02:37:51;;;;;;;20.60;3.30;;;;;;;;;;5082027;28;20040;-87
2021/03/16 02:40:20;;;;;;;33.95;4.32;;;;;;;;;;5096993;28;20066;-87
2021/03/16 02:42:55;;;;;;;27.08;3.55;;;;;;;;;;5070698;28;20019;-87
2021/03/16 02:45:37;;;;;;;;;;;;;;;;;;;;;
2021/03/16 02:48:18;;;;;;;36.53;5.30;;;;;;;;;;5071011;28;20020;-87
2021/03/16 02:50:49;;;;;;;36.50;8.05;;;;;;;;;;5079623;28;20039;-86
2021/03/16 02:53:18;;;;;;;31.50;6.03;;;;;;;;;;5075692;28;20431;-86
2021/03/16 02:55:50;;;;;;;34.83;5.03;;;;;;;;;;5070042;28;20111;-87
2021/03/16 02:58:21;;;;;;;31.52;4.07;;;;;;;;;;5088375;28;20079;-88
2021/03/16 03:00:52;;;;;;;40.60;4.93;;;;;;;;;;5068588;28;20385;-87
2021/03/16 03:03:33;;;;;;;26.85;3.90;;;;;;;;;;5075414;28;20024;-88
2021/03/16 03:06:01;;;;;;;37.58;4.15;;;;;;;;;;5083265;28;20028;-87
2021/03/16 03:08:27;;;;;;;30.38;4.07;;;;;;;;;;5084000;28;20032;-87
2021/03/16 03:10:56;;;;;;;36.28;7.47;;;;;;;;;;5082753;28;20430;-86
2021/03/16 03:13:21;;;;;;;31.40;3.95;;;;;;;;;;5069971;28;20025;-87
2021/03/16 03:15:46;;;;;;;39.20;4.03;;;;;;;;;;5083771;28;20427;-87
2021/03/16 03:18:12;;;;;;;29.92;4.20;;;;;;;;;;5089039;28;20027;-88
2021/03/16 03:20:53;;;;;;;41.28;4.82;;;;;;;;;;5083688;28;20067;-87
2021/03/16 03:23:31;;;;;;;25.88;4.32;;;;;;;;;;5095436;28;20024;-87
2021/03/16 03:26:01;;;;;;;24.08;4.20;;;;;;;;;;5071118;28;20044;-88
2021/03/16 03:28:30;;;;;;;24.63;3.65;;;;;;;;;;5077708;28;20100;-87
2021/03/16 03:31:16;;;;;;;33.13;4.82;;;;;;;;;;5077189;28;20124;-87
2021/03/16 03:34:21;;;;;;;;;;;;;;;;;;;;;
2021/03/16 03:40:47;;;;;;;;;;;;;;;;;;;;;
2021/03/16 03:43:25;;;;;;;26.20;4.57;;;;;;;;;;5073567;28;20423;-87
2021/03/16 03:46:00;;;;;;;26.17;3.20;;;;;;;;;;5085553;28;20020;-88
2021/03/16 03:48:29;;;;;;;25.00;3.67;;;;;;;;;;5072477;28;20017;-87
2021/03/16 03:54:43;;;;;;;24.67;3.03;;;;;;;;;;5025425;28;20034;-89
2021/03/16 03:57:18;;;;;;;25.13;3.22;;;;;;;;;;4998167;28;20080;-89
2021/03/16 03:59:58;;;;;;;16.00;2.88;;;;;;;;;;5058058;28;20032;-87
2021/03/16 04:02:26;;;;;;;28.87;4.60;;;;;;;;;;5079784;28;20024;-88
2021/03/16 04:04:52;;;;;;;26.80;3.67;;;;;;;;;;5088937;28;20019;-87
2021/03/16 04:07:18;;;;;;;25.73;3.90;;;;;;;;;;5079711;28;21666;-87
2021/03/16 04:09:44;;;;;;;29.88;5.00;;;;;;;;;;5079033;28;20137;-87
2021/03/16 04:12:15;;;;;;;31.27;3.88;;;;;;;;;;5078043;28;20020;-88
2021/03/16 04:14:46;;;;;;;25.98;2.72;;;;;;;;;;5085697;28;20119;-87
2021/03/16 04:17:25;;;;;;;39.95;3.60;;;;;;;;;;5073013;28;20306;-87
2021/03/16 04:19:54;;;;;;;41.50;4.32;;;;;;;;;;5081373;28;20034;-87
2021/03/16 04:22:23;;;;;;;33.38;3.72;;;;;;;;;;5075212;28;20381;-89
2021/03/16 04:24:55;;;;;;;27.42;4.32;;;;;;;;;;5084186;28;20077;-87
2021/03/16 04:27:33;;;;;;;23.50;4.05;;;;;;;;;;5075010;28;20371;-90
2021/03/16 04:30:19;;;;;;;24.63;3.20;;;;;;;;;;5072186;28;20097;-89
2021/03/16 04:33:19;;;;;;;;;;;;;;;;;;;;;
2021/03/16 04:36:02;;;;;;;18.77;2.70;;;;;;;;;;5071510;28;20488;-91
2021/03/16 04:38:59;;;;;;;19.75;3.25;;;;;;;;;;5073610;28;20025;-87
2021/03/16 04:41:30;;;;;;;30.17;3.58;;;;;;;;;;5081120;28;20040;-88
2021/03/16 04:44:02;;;;;;;27.90;3.85;;;;;;;;;;5068810;28;20492;-89
2021/03/16 04:47:09;;;;;;;34.78;4.60;;;;;;;;;;5070604;28;20033;-87
2021/03/16 04:49:57;;;;;;;26.23;3.97;;;;;;;;;;5038443;28;20081;-88
2021/03/16 04:52:31;;;;;;;26.73;4.78;;;;;;;;;;5071156;28;20020;-90
2021/03/16 04:55:09;;;;;;;31.05;4.00;;;;;;;;;;5086548;28;20055;-87
2021/03/16 04:57:36;;;;;;;25.27;4.22;;;;;;;;;;5090233;28;20024;-89
2021/03/16 05:00:21;;;;;;;21.85;3.65;;;;;;;;;;5089500;28;20015;-89
2021/03/16 05:02:50;;;;;;;25.98;3.85;;;;;;;;;;5071998;28;20028;-88
2021/03/16 05:05:18;;;;;;;34.28;4.50;;;;;;;;;;5081416;28;20099;-89
2021/03/16 05:07:45;;;;;;;19.38;3.42;;;;;;;;;;5077993;28;20023;-88
2021/03/16 05:10:31;;;;;;;24.42;2.85;;;;;;;;;;5081588;28;20034;-89
2021/03/16 05:13:31;;;;;;;25.23;3.17;;;;;;;;;;5082044;28;20069;-88
2021/03/16 05:19:13;;;;;;;21.30;3.45;;;;;;;;;;5052502;28;20102;-89
2021/03/16 05:21:42;;;;;;;45.70;5.18;;;;;;;;;;5075200;28;20387;-90
2021/03/16 05:24:08;;;;;;;28.27;3.60;;;;;;;;;;5080253;28;20390;-88
2021/03/16 05:26:39;;;;;;;36.85;4.68;;;;;;;;;;5070457;28;20100;-88
2021/03/16 05:29:07;;;;;;;26.45;3.47;;;;;;;;;;5083473;28;20044;-91
2021/03/16 05:31:45;;;;;;;27.90;3.70;;;;;;;;;;5086375;28;20026;-90
2021/03/16 05:34:12;;;;;;;33.88;4.50;;;;;;;;;;5078323;28;20016;-88
2021/03/16 05:36:59;;;;;;;22.73;4.50;;;;;;;;;;5084616;28;20028;-88
2021/03/16 05:40:13;;;;;;;;;;;;;;;;;;;;;
2021/03/16 05:42:44;;;;;;;39.05;6.30;;;;;;;;;;5077442;28;20034;-87
2021/03/16 05:45:28;;;;;;;33.80;4.00;;;;;;;;;;5070494;28;20385;-89
2021/03/16 05:47:59;;;;;;;36.67;3.80;;;;;;;;;;5072194;28;20036;-89
2021/03/16 05:50:28;;;;;;;35.00;4.88;;;;;;;;;;5083954;28;20107;-88
2021/03/16 05:56:07;;;;;;;23.23;3.78;;;;;;;;;;5060650;28;20603;-88
2021/03/16 06:08:34;;;;;;;29.25;4.40;;;;;;;;;;4953031;28;20019;-89
2021/03/16 06:11:43;;;;;;;47.03;6.07;;;;;;;;;;4934297;29;20031;-89
2021/03/16 06:14:31;;;;;;;23.63;3.22;;;;;;;;;;4933719;29;20046;-88
2021/03/16 06:17:57;;;;;;;;;;;;;;;;;;;;;
2021/03/16 06:24:02;;;;;;;;;;;;;;;;;;;;;
2021/03/16 06:27:01;;;;;;;21.42;3.28;;;;;;;;;;4944878;28;20039;-88
2021/03/16 06:29:26;;;;;;;15.35;3.10;;;;;;;;;;4986964;28;20034;-88
2021/03/16 06:32:13;;;;;;;30.95;3.92;;;;;;;;;;5046215;28;20231;-87
2021/03/16 06:34:56;;;;;;;31.50;4.38;;;;;;;;;;5079469;28;20046;-89
2021/03/16 06:37:41;;;;;;;25.80;3.50;;;;;;;;;;5071432;28;20024;-89
2021/03/16 06:40:07;;;;;;;20.52;3.28;;;;;;;;;;5065690;23;20136;-67
2021/03/16 06:42:32;;;;;;;22.73;4.32;;;;;;;;;;5045823;28;20621;-67
2021/03/16 06:45:02;;;;;;;34.15;4.50;;;;;;;;;;5047058;28;20099;-67
2021/03/16 06:47:27;;;;;;;16.33;3.58;;;;;;;;;;5044348;28;20083;-67
2021/03/16 06:49:52;;;;;;;24.08;3.00;;;;;;;;;;5029465;28;20033;-67
2021/03/16 06:52:17;;;;;;;33.13;4.47;;;;;;;;;;5047691;28;20021;-67
2021/03/16 06:54:43;;;;;;;30.42;3.55;;;;;;;;;;5072008;22;20654;-68
2021/03/16 06:57:10;;;;;;;27.10;3.92;;;;;;;;;;5049078;28;20753;-68
2021/03/16 06:59:35;;;;;;;31.20;4.05;;;;;;;;;;5047849;28;20167;-68
2021/03/16 07:02:10;;;;;;;21.52;3.58;;;;;;;;;;5034776;28;20506;-68
2021/03/16 07:04:41;;;;;;;19.90;3.40;;;;;;;;;;5047418;28;20020;-69
2021/03/16 07:07:08;;;;;;;32.47;4.40;;;;;;;;;;5048837;28;20049;-70
2021/03/16 07:09:34;;;;;;;31.92;4.88;;;;;;;;;;5049251;28;20028;-67
2021/03/16 07:12:00;;;;;;;20.38;3.83;;;;;;;;;;5048930;28;20147;-69
2021/03/16 07:14:26;;;;;;;31.58;4.38;;;;;;;;;;5049187;28;20070;-66
2021/03/16 07:16:53;;;;;;;34.65;4.70;;;;;;;;;;5045616;28;20033;-69
2021/03/16 07:19:20;;;;;;;32.92;4.32;;;;;;;;;;5046200;28;20605;-68
2021/03/16 07:21:50;;;;;;;25.05;6.57;;;;;;;;;;5048267;28;20056;-67
2021/03/16 07:24:16;;;;;;;36.92;5.68;;;;;;;;;;5049642;28;20035;-66
2021/03/16 07:26:42;;;;;;;33.22;4.82;;;;;;;;;;5049087;28;20033;-69
2021/03/16 07:29:07;;;;;;;44.63;5.85;;;;;;;;;;5048595;28;20127;-68
2021/03/16 07:31:33;;;;;;;35.40;6.43;;;;;;;;;;5048559;28;20025;-67
2021/03/16 07:34:04;;;;;;;25.13;4.70;;;;;;;;;;5047544;28;20020;-66
2021/03/16 07:36:29;;;;;;;33.30;6.45;;;;;;;;;;5048349;28;20104;-67
2021/03/16 07:38:55;;;;;;;26.23;3.85;;;;;;;;;;5052087;28;20021;-67
2021/03/16 07:41:20;;;;;;;26.08;4.65;;;;;;;;;;5049549;28;20350;-66
2021/03/16 07:43:45;;;;;;;16.85;3.97;;;;;;;;;;5049163;28;20059;-66
2021/03/16 07:46:17;;;;;;;26.50;4.15;;;;;;;;;;5046202;28;20071;-67
2021/03/16 07:48:46;;;;;;;23.23;3.78;;;;;;;;;;5047994;28;20017;-67
2021/03/16 07:51:15;;;;;;;22.23;4.32;;;;;;;;;;5049450;28;20048;-67
2021/03/16 07:53:41;;;;;;;28.25;3.67;;;;;;;;;;5048370;28;20029;-67
2021/03/16 07:56:08;;;;;;;41.80;4.50;;;;;;;;;;5049618;28;20512;-67
2021/03/16 07:58:41;;;;;;;36.13;4.38;;;;;;;;;;5048505;28;20029;-67
2021/03/16 08:01:07;;;;;;;29.90;3.40;;;;;;;;;;5047000;28;20027;-67
2021/03/16 08:03:32;;;;;;;31.77;3.70;;;;;;;;;;5048902;28;20459;-67
2021/03/16 08:05:57;;;;;;;20.63;4.47;;;;;;;;;;5045268;28;20477;-67
2021/03/16 08:08:22;;;;;;;25.13;4.45;;;;;;;;;;5048931;28;20028;-67
2021/03/16 08:10:47;;;;;;;30.27;4.63;;;;;;;;;;5049165;28;20033;-67
2021/03/16 08:13:17;;;;;;;18.20;3.72;;;;;;;;;;5048858;28;20017;-67
2021/03/16 08:15:44;;;;;;;24.90;3.25;;;;;;;;;;5048172;28;20446;-67
2021/03/16 08:18:09;;;;;;;18.73;3.55;;;;;;;;;;5051892;28;20075;-67
2021/03/16 08:20:34;;;;;;;23.38;3.83;;;;;;;;;;5051303;28;20400;-69
2021/03/16 08:23:18;;;;;;;27.25;5.13;;;;;;;;;;5034758;28;20025;-67
2021/03/16 08:25:43;;;;;;;23.45;4.25;;;;;;;;;;5052518;28;20021;-68
2021/03/16 08:28:11;;;;;;;22.10;4.07;;;;;;;;;;5053757;28;20021;-67
2021/03/16 08:30:37;;;;;;;24.40;3.63;;;;;;;;;;5049748;28;20020;-67
2021/03/16 08:33:12;;;;;;;18.35;3.72;;;;;;;;;;5051918;28;20017;-67
2021/03/16 08:35:40;;;;;;;21.42;3.45;;;;;;;;;;5052671;28;20098;-67
2021/03/16 08:38:05;;;;;;;15.35;3.55;;;;;;;;;;5052332;28;20025;-67
2021/03/16 08:40:30;;;;;;;20.55;4.32;;;;;;;;;;5052677;28;20388;-68
2021/03/16 08:42:55;;;;;;;13.83;3.70;;;;;;;;;;5048021;28;20508;-67
2021/03/16 08:45:30;;;;;;;15.25;4.18;;;;;;;;;;5052668;28;20376;-67
2021/03/16 08:47:55;;;;;;;22.15;3.50;;;;;;;;;;5053213;28;20075;-67
2021/03/16 08:50:21;;;;;;;20.95;4.00;;;;;;;;;;5063892;28;20013;-67
2021/03/16 08:52:46;;;;;;;12.38;3.58;;;;;;;;;;5052058;28;20021;-67
2021/03/16 08:55:21;;;;;;;23.92;3.75;;;;;;;;;;5052339;28;20095;-67
2021/03/16 08:57:46;;;;;;;23.42;4.97;;;;;;;;;;5044711;28;20049;-68
2021/03/16 09:00:13;;;;;;;20.45;4.47;;;;;;;;;;5051440;28;20167;-67
2021/03/16 09:02:39;;;;;;;19.23;3.30;;;;;;;;;;5051318;28;20044;-67
2021/03/16 09:05:05;;;;;;;18.50;3.42;;;;;;;;;;5051579;28;20021;-68
2021/03/16 09:07:31;;;;;;;14.48;2.92;;;;;;;;;;5051879;28;20425;-68
2021/03/16 09:10:17;;;;;;;13.32;3.15;;;;;;;;;;5051253;28;20094;-67
2021/03/16 09:12:43;;;;;;;13.00;2.90;;;;;;;;;;5052079;28;20027;-68
2021/03/16 09:15:09;;;;;;;15.77;3.28;;;;;;;;;;5052169;28;20024;-68
2021/03/16 09:17:35;;;;;;;16.48;3.83;;;;;;;;;;5051477;28;20028;-68
2021/03/16 09:20:11;;;;;;;8.48;2.72;;;;;;;;;;5051070;28;20033;-68
2021/03/16 09:22:36;;;;;;;15.10;3.47;;;;;;;;;;5051938;28;20024;-68
2021/03/16 09:25:02;;;;;;;15.88;4.15;;;;;;;;;;5050745;28;20072;-68
2021/03/16 09:27:27;;;;;;;16.35;3.20;;;;;;;;;;5050672;28;20454;-68
2021/03/16 09:29:52;;;;;;;17.02;3.50;;;;;;;;;;5051128;28;20025;-68
2021/03/16 09:32:18;;;;;;;17.90;4.10;;;;;;;;;;5051817;28;20497;-68
2021/03/16 09:34:44;;;;;;;15.30;3.75;;;;;;;;;;5051331;28;20048;-68
2021/03/16 09:37:10;;;;;;;22.92;4.55;;;;;;;;;;5050624;28;20025;-68
2021/03/16 09:39:36;;;;;;;30.88;5.63;;;;;;;;;;5051163;28;20021;-68
2021/03/16 09:42:02;;;;;;;25.77;4.80;;;;;;;;;;5032998;28;20024;-68
2021/03/16 09:44:32;;;;;;;22.15;5.32;;;;;;;;;;5051743;28;20021;-68
2021/03/16 09:46:57;;;;;;;18.02;4.70;;;;;;;;;;5047196;28;20063;-68
2021/03/16 09:49:26;;;;;;;16.63;5.10;;;;;;;;;;5050645;28;20040;-68
2021/03/16 09:51:51;;;;;;;21.70;5.13;;;;;;;;;;5049250;28;20025;-68
2021/03/16 09:54:17;;;;;;;24.00;4.50;;;;;;;;;;5050809;28;20504;-68
2021/03/16 09:56:49;;;;;;;17.30;4.50;;;;;;;;;;5036155;28;20034;-68
2021/03/16 09:59:14;;;;;;;31.83;7.28;;;;;;;;;;5048392;28;20033;-68
2021/03/16 10:01:40;;;;;;;30.60;6.50;;;;;;;;;;5064109;28;20033;-68
2021/03/16 10:04:10;;;;;;;27.52;5.20;;;;;;;;;;5050488;28;20021;-68
2021/03/16 10:06:36;;;;;;;25.25;5.35;;;;;;;;;;5050499;28;20024;-68
2021/03/16 10:09:17;;;;;;;28.05;5.82;;;;;;;;;;5050416;28;20099;-68
2021/03/16 10:11:43;;;;;;;34.03;6.32;;;;;;;;;;5033075;28;20064;-68
2021/03/16 10:14:08;;;;;;;25.75;5.28;;;;;;;;;;5050717;28;20122;-68
2021/03/16 10:16:35;;;;;;;22.17;4.43;;;;;;;;;;5051024;28;20029;-68
2021/03/16 10:19:00;;;;;;;24.88;4.70;;;;;;;;;;5049662;28;20190;-68
2021/03/16 10:21:32;;;;;;;16.55;4.68;;;;;;;;;;5049879;28;20100;-68
2021/03/16 10:23:58;;;;;;;12.68;4.95;;;;;;;;;;5050396;28;20103;-68
2021/03/16 10:26:24;;;;;;;29.80;3.33;;;;;;;;;;5049441;28;20481;-68
2021/03/16 10:28:49;;;;;;;19.20;3.10;;;;;;;;;;5040171;28;20469;-68
2021/03/16 10:31:22;;;;;;;17.80;2.53;;;;;;;;;;5049308;28;20013;-68
2021/03/16 10:33:48;;;;;;;23.33;3.13;;;;;;;;;;5049695;28;20109;-68
2021/03/16 10:36:13;;;;;;;16.50;3.05;;;;;;;;;;5050216;28;20031;-68
2021/03/16 10:38:39;;;;;;;17.35;3.13;;;;;;;;;;5049382;28;20459;-68
2021/03/16 10:41:04;;;;;;;26.58;3.63;;;;;;;;;;5049951;28;20025;-68
2021/03/16 10:43:30;;;;;;;15.45;3.15;;;;;;;;;;5050472;28;20024;-68
2021/03/16 10:45:55;;;;;;;24.75;3.65;;;;;;;;;;5048764;28;20031;-68
2021/03/16 10:48:21;;;;;;;13.00;3.58;;;;;;;;;;5049726;28;20027;-68
2021/03/16 10:50:46;;;;;;;19.48;3.53;;;;;;;;;;5049932;28;20096;-68
2021/03/16 10:53:13;;;;;;;24.63;4.07;;;;;;;;;;5050124;28;20384;-68
2021/03/16 10:55:38;;;;;;;14.90;3.40;;;;;;;;;;5049830;28;20086;-68
2021/03/16 10:58:03;;;;;;;13.73;3.53;;;;;;;;;;5049823;28;20021;-68
2021/03/16 11:00:28;;;;;;;18.95;3.25;;;;;;;;;;5049080;28;20029;-68
2021/03/16 11:02:53;;;;;;;17.48;3.22;;;;;;;;;;5050130;28;20500;-68
2021/03/16 11:05:19;;;;;;;18.50;3.37;;;;;;;;;;5049829;28;20030;-68
2021/03/16 11:07:44;;;;;;;30.65;5.22;;;;;;;;;;5049829;28;20354;-68
2021/03/16 11:10:10;;;;;;;18.02;4.18;;;;;;;;;;5050447;28;20021;-68
2021/03/16 11:12:35;;;;;;;21.92;3.42;;;;;;;;;;5049999;28;20017;-67
2021/03/16 11:15:00;;;;;;;25.50;3.40;;;;;;;;;;5046379;28;20076;-67
2021/03/16 11:17:25;;;;;;;13.63;1.95;;;;;;;;;;5042435;28;20473;-67
2021/03/16 11:19:51;;;;;;;12.98;1.88;;;;;;;;;;5049189;28;20044;-68
2021/03/16 11:22:16;;;;;;;5.93;1.90;;;;;;;;;;5049776;28;20038;-68
2021/03/16 11:24:41;;;;;;;13.38;2.00;;;;;;;;;;5050117;28;20466;-68
2021/03/16 11:27:06;;;;;;;6.95;2.60;;;;;;;;;;5049288;28;20024;-68
2021/03/16 11:29:32;;;;;;;13.95;2.33;;;;;;;;;;5050080;28;20025;-68
2021/03/16 11:31:57;;;;;;;8.90;2.25;;;;;;;;;;5048816;28;20017;-69
2021/03/16 11:34:22;;;;;;;11.63;2.00;;;;;;;;;;5049377;28;20017;-68
2021/03/16 11:36:47;;;;;;;10.90;1.92;;;;;;;;;;5049665;28;20366;-69
2021/03/16 11:39:13;;;;;;;9.45;2.13;;;;;;;;;;5049314;28;20485;-68
2021/03/16 11:41:38;;;;;;;14.35;1.90;;;;;;;;;;5049754;28;20029;-69
2021/03/16 11:44:04;;;;;;;5.10;1.67;;;;;;;;;;5048167;28;20103;-69
2021/03/16 11:46:29;;;;;;;14.35;2.65;;;;;;;;;;5049061;28;20033;-69
2021/03/16 11:48:54;;;;;;;10.27;3.30;;;;;;;;;;5047080;28;20021;-69
2021/03/16 11:51:19;;;;;;;9.57;2.15;;;;;;;;;;5051912;28;20276;-69
2021/03/16 11:53:45;;;;;;;11.33;4.03;;;;;;;;;;5054125;28;20016;-69
2021/03/16 11:56:10;;;;;;;13.90;2.15;;;;;;;;;;5066079;28;20639;-68
2021/03/16 11:58:35;;;;;;;11.45;2.13;;;;;;;;;;5057876;28;20029;-69
2021/03/16 12:01:01;;;;;;;17.73;2.60;;;;;;;;;;5053848;28;20087;-68
2021/03/16 12:03:26;;;;;;;11.30;2.13;;;;;;;;;;5034778;28;20492;-68
2021/03/16 12:05:51;;;;;;;11.48;1.95;;;;;;;;;;5053105;28;20029;-69
2021/03/16 12:08:17;;;;;;;14.25;2.35;;;;;;;;;;5053465;28;20100;-68
2021/03/16 12:10:43;;;;;;;9.13;2.45;;;;;;;;;;5052967;28;20021;-69
2021/03/16 12:13:08;;;;;;;14.18;2.97;;;;;;;;;;5052785;28;20024;-68
2021/03/16 12:15:33;;;;;;;13.35;2.38;;;;;;;;;;5052427;28;20029;-68
2021/03/16 12:17:59;;;;;;;12.60;3.17;;;;;;;;;;5052401;28;20370;-69
2021/03/16 12:20:24;;;;;;;12.95;2.47;;;;;;;;;;5052204;28;20029;-68
2021/03/16 12:22:49;;;;;;;16.40;3.00;;;;;;;;;;5039399;28;20036;-68
2021/03/16 12:25:14;;;;;;;8.05;2.22;;;;;;;;;;5052600;28;20056;-69
2021/03/16 12:27:40;;;;;;;19.27;3.72;;;;;;;;;;5052083;28;20474;-70
2021/03/16 12:30:05;;;;;;;17.48;4.50;;;;;;;;;;5052531;28;20091;-68
2021/03/16 12:32:31;;;;;;;14.48;4.47;;;;;;;;;;5052664;28;20033;-68
2021/03/16 12:34:56;;;;;;;14.13;4.35;;;;;;;;;;5052156;28;20112;-69
2021/03/16 12:37:21;;;;;;;14.73;4.20;;;;;;;;;;5052956;28;20028;-68
2021/03/16 12:39:46;;;;;;;6.90;3.45;;;;;;;;;;5050297;28;20063;-68
2021/03/16 12:42:12;;;;;;;11.90;4.57;;;;;;;;;;5052283;28;20437;-68
2021/03/16 12:44:38;;;;;;;7.45;3.13;;;;;;;;;;5052563;28;20029;-68
2021/03/16 12:47:04;;;;;;;11.10;3.88;;;;;;;;;;5051075;28;20025;-67
2021/03/16 12:49:30;;;;;;;7.35;3.65;;;;;;;;;;5052522;28;20017;-68
2021/03/16 12:51:55;;;;;;;5.63;3.13;;;;;;;;;;5052404;28;20162;-67
2021/03/16 12:54:22;;;;;;;8.65;3.00;;;;;;;;;;5056550;23;20053;-63
2021/03/16 12:56:48;;;;;;;16.80;2.95;;;;;;;;;;5052274;28;20106;-64
2021/03/16 12:59:13;;;;;;;10.68;3.13;;;;;;;;;;5054148;28;20061;-64
2021/03/16 13:01:38;;;;;;;11.40;3.20;;;;;;;;;;5051245;28;20562;-64
2021/03/16 13:04:04;;;;;;;14.77;2.90;;;;;;;;;;5051203;28;20031;-64
2021/03/16 13:06:29;;;;;;;8.30;2.88;;;;;;;;;;5051606;28;20282;-63
2021/03/16 13:08:54;;;;;;;12.57;2.97;;;;;;;;;;5051305;28;20477;-64
2021/03/16 13:11:19;;;;;;;9.57;2.97;;;;;;;;;;5051963;28;20047;-64
2021/03/16 13:13:44;;;;;;;13.73;3.83;;;;;;;;;;5051619;28;20263;-64
2021/03/16 13:16:10;;;;;;;15.52;3.72;;;;;;;;;;5050136;28;20054;-64
2021/03/16 13:18:35;;;;;;;11.25;3.75;;;;;;;;;;5045964;28;20469;-64
2021/03/16 13:21:00;;;;;;;21.42;5.07;;;;;;;;;;5051633;28;20431;-64
2021/03/16 13:23:25;;;;;;;21.52;4.65;;;;;;;;;;5051468;28;20465;-64
2021/03/16 13:25:51;;;;;;;11.15;5.22;;;;;;;;;;5052063;28;20047;-64
2021/03/16 13:28:16;;;;;;;9.98;4.78;;;;;;;;;;5047433;28;20107;-64
2021/03/16 13:30:41;;;;;;;12.45;5.53;;;;;;;;;;5051649;28;20017;-64
2021/03/16 13:33:06;;;;;;;12.25;4.30;;;;;;;;;;5051040;28;20025;-64
2021/03/16 13:35:31;;;;;;;14.00;4.50;;;;;;;;;;5050784;28;20033;-64
2021/03/16 13:37:58;;;;;;;20.70;4.40;;;;;;;;;;5050761;28;20048;-64
2021/03/16 13:40:23;;;;;;;11.05;3.85;;;;;;;;;;5051513;28;20044;-64
2021/03/16 13:42:48;;;;;;;22.02;4.47;;;;;;;;;;5050706;28;20063;-64
2021/03/16 13:45:14;;;;;;;10.82;4.38;;;;;;;;;;5050651;28;20025;-64
2021/03/16 13:47:39;;;;;;;10.50;4.10;;;;;;;;;;5049861;28;20037;-64
2021/03/16 13:50:05;;;;;;;11.55;3.45;;;;;;;;;;5050461;28;20017;-64
2021/03/16 13:52:30;;;;;;;16.38;3.33;;;;;;;;;;5051171;28;20032;-64
2021/03/16 13:54:56;;;;;;;9.05;3.55;;;;;;;;;;5050089;28;20404;-64
2021/03/16 13:57:21;;;;;;;17.30;3.72;;;;;;;;;;5046794;28;20025;-64
2021/03/16 13:59:46;;;;;;;14.13;4.97;;;;;;;;;;5050531;28;20082;-64
2021/03/16 14:02:11;;;;;;;12.30;3.73;;;;;;;;;;5050610;28;20036;-64
2021/03/16 14:04:36;;;;;;;19.65;4.22;;;;;;;;;;5049177;28;20358;-64
2021/03/16 14:07:02;;;;;;;8.88;3.22;;;;;;;;;;5048676;28;20028;-64
2021/03/16 14:09:27;;;;;;;6.53;2.67;;;;;;;;;;5045466;28;20017;-64
2021/03/16 14:11:52;;;;;;;7.32;2.88;;;;;;;;;;5050624;28;20048;-65
2021/03/16 14:14:18;;;;;;;9.80;2.80;;;;;;;;;;5049858;28;20092;-65
2021/03/16 14:16:43;;;;;;;9.82;3.13;;;;;;;;;;5050893;28;20071;-65
2021/03/16 14:19:09;;;;;;;8.40;2.80;;;;;;;;;;5048869;28;20058;-66
2021/03/16 14:21:34;;;;;;;9.45;3.38;;;;;;;;;;5050431;28;20017;-64
2021/03/16 14:23:59;;;;;;;9.43;3.43;;;;;;;;;;5051100;28;20455;-66
2021/03/16 14:26:24;;;;;;;13.27;3.40;;;;;;;;;;5050638;28;20295;-66
2021/03/16 14:28:50;;;;;;;10.57;3.42;;;;;;;;;;5050495;28;20350;-66
2021/03/16 14:31:17;;;;;;;9.25;3.50;;;;;;;;;;5048650;28;20032;-66
2021/03/16 14:33:42;;;;;;;12.35;3.95;;;;;;;;;;5048844;28;20013;-66
2021/03/16 14:36:08;;;;;;;9.70;4.10;;;;;;;;;;5050325;28;20032;-66
2021/03/16 14:38:33;;;;;;;8.90;3.88;;;;;;;;;;5049337;28;20025;-66
2021/03/16 14:40:58;;;;;;;9.00;3.47;;;;;;;;;;5050291;28;20029;-66
2021/03/16 14:43:23;;;;;;;12.93;4.15;;;;;;;;;;5050103;28;20033;-66
2021/03/16 14:45:48;;;;;;;12.82;4.40;;;;;;;;;;5049973;28;20391;-66
2021/03/16 14:48:15;;;;;;;14.48;4.78;;;;;;;;;;5045175;28;20095;-66
2021/03/16 14:50:40;;;;;;;15.25;5.53;;;;;;;;;;5042367;28;20027;-66
2021/03/16 14:53:07;;;;;;;16.70;6.25;;;;;;;;;;5045704;28;20016;-66
2021/03/16 14:55:32;;;;;;;12.00;5.30;;;;;;;;;;5049951;28;20036;-65
2021/03/16 14:57:57;;;;;;;25.67;6.28;;;;;;;;;;5049254;28;20020;-65
2021/03/16 15:00:23;;;;;;;22.95;7.72;;;;;;;;;;5049197;28;20090;-65
2021/03/16 15:02:48;;;;;;;17.73;5.55;;;;;;;;;;5050359;28;20084;-68
2021/03/16 15:05:13;;;;;;;11.70;6.03;;;;;;;;;;5049439;28;20029;-66
2021/03/16 15:07:39;;;;;;;15.88;4.90;;;;;;;;;;5047313;28;20319;-65
2021/03/16 15:10:05;;;;;;;13.75;4.70;;;;;;;;;;5043895;28;20021;-65
2021/03/16 15:12:30;;;;;;;9.65;3.90;;;;;;;;;;5048239;28;20009;-65
2021/03/16 15:14:55;;;;;;;8.27;3.53;;;;;;;;;;5045067;28;20013;-65
2021/03/16 15:17:20;;;;;;;6.00;3.88;;;;;;;;;;5049394;28;20043;-67
2021/03/16 15:19:46;;;;;;;5.03;3.45;;;;;;;;;;5047651;28;20043;-67
2021/03/16 15:22:11;;;;;;;10.00;3.05;;;;;;;;;;5046428;28;20037;-67
2021/03/16 15:24:36;;;;;;;5.80;3.58;;;;;;;;;;5048934;28;20104;-64
2021/03/16 15:27:01;;;;;;;10.73;3.53;;;;;;;;;;5053010;28;20029;-65
2021/03/16 15:29:26;;;;;;;3.30;2.50;;;;;;;;;;5053905;28;20361;-65
2021/03/16 15:31:52;;;;;;;8.18;2.92;;;;;;;;;;5041663;28;20155;-65
2021/03/16 15:34:17;;;;;;;7.68;2.95;;;;;;;;;;5034133;28;20466;-65